Terminal Aerodrome Forecast
Issued by NWS

Home | Current Version | Previous Version | Text Only | Print | Product List | Glossary On
Versions: 1 2 3 4 5 6 7 8 9 10 11 12 13 14 15 16 17 18
000
FTUS46 KPDT 251140
TAFALW
TAF
KALW 251140Z 2512/2612 13006KT P6SM BKN080
     FM251800 23008KT P6SM FEW060
     FM260300 18010KT P6SM BKN200
     FM260700 19010KT P6SM BKN050=

USA.gov is the U.S. government's official web portal to all federal, state and local government web resources and services.